Corning, AR

12:36 PM CDT on July 27, 2017 (GMT -0500)
Corning

Weather History for K4M9 - December, 2013

Change the Weather History Date:

Friday, December 13, 2013

  Actual Average (KARG) Record (KARG)
Temperature  
Mean Temperature 30 °F -  
Max Temperature 37 °F 46 °F 71 °F (2015)
Min Temperature 23 °F 31 °F 12 °F (2010)
Degree Days  
Heating Degree Days 35    
Moisture  
Dew Point 27 °F    
Average Humidity 87    
Maximum Humidity 100    
Minimum Humidity 70    
Precipitation  
Precipitation 0.33 in - - ()
Sea Level Pressure  
Sea Level Pressure 30.18 in    
Wind  
Wind Speed 4 mph (ESE)    
Max Wind Speed 13 mph    
Max Gust Speed -    
Visibility 7 miles    
Events Rain    
Averages and records for this station are not official NWS values.
T = Trace of Precipitation, MM = Missing Value Source: NWS Daily Summary

Daily Weather History Graph

Daily Weather History Graph

Search for Another Location

Airport or City:

Trip Planner

Search our weather history database for the weather conditions in past years. The results will help you decide how hot, cold, wet, or windy it might be!

Date:

Astronomy

Dec. 13, 2013 Rise Set
Actual Time 7:05 AM CST 4:48 PM CST
Civil Twilight 6:37 AM CST 5:16 PM CST
Nautical Twilight 6:04 AM CST 5:49 PM CST
Astronomical Twilight 5:33 AM CST 6:20 PM CST
Moon 2:27 PM CST (12/13) 3:32 AM CST (12/13)
Length of Visible Light 10h 39m
Length of Day
9h 42m
Waxing Gibbous, 88% of the Moon is Illuminated
Dec 13
Waxing Gibbous
Dec 17
Full
Dec 25
Last Quarter
Jan 1
New
Jan 7
First Quarter

Hourly Weather History & Observations

Time (CST) Temp. Windchill Dew Point Humidity Pressure Visibility Wind Dir Wind Speed Gust Speed Precip Events Conditions
12:15 AM 23.0 °F 17.0 °F 19.4 °F 86% 30.37 in 7.0 mi SW 4.6 mph - N/A   Clear
12:35 AM 23.0 °F 18.4 °F 21.2 °F 93% 30.36 in 6.0 mi WSW 3.5 mph - N/A   Clear
12:55 AM 23.0 °F - 19.4 °F 86% 30.35 in 10.0 mi Calm Calm - N/A   Clear
1:15 AM 23.0 °F 18.4 °F 19.4 °F 86% 30.35 in 10.0 mi WSW 3.5 mph - N/A   Clear
1:35 AM 23.0 °F - 21.2 °F 93% 30.35 in 8.0 mi Calm Calm - N/A   Clear
1:55 AM 23.0 °F - 23.0 °F 100% 30.34 in 2.5 mi Calm Calm - N/A   Clear
2:15 AM 23.0 °F - 23.0 °F 100% 30.33 in 3.0 mi Calm Calm - N/A   Clear
2:35 AM 23.0 °F 18.4 °F 21.2 °F 93% 30.33 in 5.0 mi SE 3.5 mph - N/A   Clear
2:55 AM 23.0 °F 18.4 °F 23.0 °F 100% 30.32 in 6.0 mi ESE 3.5 mph - N/A   Clear
3:15 AM 23.0 °F 17.0 °F 21.2 °F 93% 30.32 in 7.0 mi SSE 4.6 mph - N/A   Clear
3:35 AM 23.0 °F - 19.4 °F 86% 30.31 in 8.0 mi Calm Calm - N/A   Clear
3:55 AM 23.0 °F 17.0 °F 21.2 °F 93% 30.29 in 7.0 mi South 4.6 mph - N/A   Clear
4:15 AM 23.0 °F 18.4 °F 21.2 °F 93% 30.30 in 8.0 mi South 3.5 mph - N/A   Clear
4:35 AM 23.0 °F 18.4 °F 23.0 °F 100% 30.28 in 9.0 mi SE 3.5 mph - N/A   Clear
4:55 AM 23.0 °F 17.0 °F 19.4 °F 86% 30.28 in 5.0 mi ESE 4.6 mph - N/A   Clear
5:15 AM 23.0 °F 17.0 °F 21.2 °F 93% 30.27 in 7.0 mi ESE 4.6 mph - N/A   Clear
5:35 AM 23.0 °F 17.0 °F 19.4 °F 86% 30.27 in 9.0 mi ESE 4.6 mph - N/A   Clear
5:55 AM 23.0 °F 17.0 °F 21.2 °F 93% 30.27 in 8.0 mi East 4.6 mph - N/A   Clear
6:15 AM 23.0 °F 17.0 °F 21.2 °F 93% 30.27 in 8.0 mi East 4.6 mph - N/A   Clear
6:35 AM 24.8 °F 19.1 °F 23.0 °F 93% 30.26 in 10.0 mi ESE 4.6 mph - N/A   Clear
6:55 AM 24.8 °F - 23.0 °F 93% 30.27 in 10.0 mi Calm Calm - N/A   Clear
7:15 AM 26.6 °F - 23.0 °F 86% 30.27 in 8.0 mi Calm Calm - N/A   Clear
7:35 AM 26.6 °F - 23.0 °F 86% 30.27 in 7.0 mi Calm Calm - N/A   Clear
7:55 AM 26.6 °F 22.6 °F 24.8 °F 93% 30.28 in 7.0 mi North 3.5 mph - N/A   Clear
8:15 AM 26.6 °F 22.6 °F 24.8 °F 93% 30.29 in 7.0 mi NNW 3.5 mph - N/A   Clear
8:35 AM 26.6 °F 22.6 °F 24.8 °F 93% 30.29 in 5.0 mi North 3.5 mph - N/A   Clear
8:55 AM 28.4 °F 23.3 °F 24.8 °F 86% 30.28 in 6.0 mi NE 4.6 mph - N/A   Clear
9:15 AM 30.2 °F 25.4 °F 26.6 °F 86% 30.27 in 6.0 mi East 4.6 mph - N/A   Clear
9:35 AM 32.0 °F 28.7 °F 26.6 °F 80% 30.26 in 7.0 mi ESE 3.5 mph - N/A   Clear
9:55 AM 32.0 °F - 26.6 °F 80% 30.26 in 9.0 mi Calm Calm - N/A   Clear
10:15 AM 32.0 °F 28.7 °F 26.6 °F 80% 30.26 in 10.0 mi SSE 3.5 mph - N/A   Clear
10:35 AM 32.0 °F 28.7 °F 26.6 °F 80% 30.26 in 10.0 mi SSE 3.5 mph - N/A   Clear
10:55 AM 32.0 °F 27.5 °F 28.4 °F 87% 30.24 in 9.0 mi ESE 4.6 mph - N/A   Clear
11:15 AM 33.8 °F - 26.6 °F 75% 30.23 in 10.0 mi Calm Calm - N/A   Clear
11:35 AM 33.8 °F 29.6 °F 28.4 °F 81% 30.21 in 9.0 mi East 4.6 mph - N/A   Clear
11:55 AM 33.8 °F 28.6 °F 28.4 °F 81% 30.19 in 5.0 mi East 5.8 mph - 0.01 in Rain Light Rain
12:15 PM 33.8 °F 29.6 °F 28.4 °F 81% 30.16 in 10.0 mi ENE 4.6 mph - N/A   Clear
12:35 PM 35.6 °F 31.7 °F 28.4 °F 75% 30.15 in 10.0 mi East 4.6 mph - N/A   Clear
12:55 PM 35.6 °F - 28.4 °F 75% 30.15 in 10.0 mi Calm Calm - N/A   Clear
1:15 PM 35.6 °F - 28.4 °F 75% 30.14 in 10.0 mi Calm Calm - N/A   Clear
1:35 PM 37.4 °F 32.8 °F 28.4 °F 70% 30.13 in 10.0 mi East 5.8 mph - N/A   Clear
1:55 PM 35.6 °F 29.2 °F 28.4 °F 75% 30.09 in 10.0 mi East 8.1 mph - N/A   Clear
2:15 PM 35.6 °F 32.8 °F 28.4 °F 75% 30.12 in 10.0 mi SSE 3.5 mph - N/A   Clear
2:35 PM 35.6 °F 29.2 °F 28.4 °F 75% 30.11 in 10.0 mi SE 8.1 mph - N/A   Clear
2:55 PM 35.6 °F 29.2 °F 28.4 °F 75% 30.10 in 10.0 mi SE 8.1 mph - N/A   Clear
3:15 PM 35.6 °F 31.7 °F 28.4 °F 75% 30.09 in 10.0 mi ESE 4.6 mph - N/A   Clear
3:35 PM 35.6 °F 30.7 °F 28.4 °F 75% 30.10 in 10.0 mi SE 5.8 mph - N/A   Clear
3:55 PM 35.6 °F 27.1 °F 28.4 °F 75% 30.09 in 10.0 mi ESE 12.7 mph - N/A   Clear
4:15 PM 35.6 °F 29.2 °F 28.4 °F 75% 30.08 in 10.0 mi SE 8.1 mph - N/A Rain Light Rain
4:35 PM 35.6 °F 29.2 °F 28.4 °F 75% 30.06 in 8.0 mi East 8.1 mph - N/A Rain Light Rain
4:55 PM 35.6 °F 30.7 °F 28.4 °F 75% 30.07 in 10.0 mi SSE 5.8 mph - N/A   Mostly Cloudy
5:15 PM 35.6 °F 31.7 °F 28.4 °F 75% 30.06 in 10.0 mi ESE 4.6 mph - N/A   Overcast
5:35 PM 33.8 °F 28.6 °F 28.4 °F 81% 30.06 in 10.0 mi East 5.8 mph - N/A   Overcast
5:55 PM 33.8 °F 29.6 °F 30.2 °F 87% 30.07 in 10.0 mi SE 4.6 mph - N/A   Overcast
6:15 PM 33.8 °F 26.4 °F 30.2 °F 87% 30.06 in 10.0 mi SE 9.2 mph - N/A   Overcast
6:35 PM 35.6 °F 29.2 °F 32.0 °F 87% 30.05 in 9.0 mi SE 8.1 mph - N/A Rain Light Rain
6:55 PM 35.6 °F 29.9 °F 32.0 °F 87% 30.05 in 5.0 mi SSE 6.9 mph - N/A Rain Light Rain
7:15 PM 33.8 °F 27.7 °F 32.0 °F 93% 30.04 in 6.0 mi SSE 6.9 mph - N/A Rain Light Rain
7:35 PM 35.6 °F 29.9 °F 32.0 °F 87% 30.04 in 4.0 mi SSE 6.9 mph - 0.02 in Rain Light Rain
7:55 PM 35.6 °F 28.6 °F 32.0 °F 87% 30.03 in 4.0 mi SE 9.2 mph - 0.04 in Rain Light Rain
8:15 PM 33.8 °F 27.0 °F 32.0 °F 93% 30.02 in 5.0 mi SE 8.1 mph - 0.01 in Rain Light Rain
8:35 PM 33.8 °F 27.7 °F 32.0 °F 93% 30.01 in 5.0 mi SE 6.9 mph - 0.02 in Rain Light Rain
8:55 PM 33.8 °F 28.6 °F 33.8 °F 100% 30.00 in 5.0 mi SE 5.8 mph - 0.03 in Rain Light Rain
9:15 PM 33.8 °F 29.6 °F 33.8 °F 100% 30.00 in 4.0 mi SE 4.6 mph - N/A   Overcast
9:35 PM 33.8 °F 30.8 °F 33.8 °F 100% 29.99 in 1.8 mi East 3.5 mph - 0.02 in Rain Light Rain
9:55 PM 33.8 °F 27.7 °F 33.8 °F 100% 29.99 in 3.0 mi SE 6.9 mph - 0.05 in Rain Light Rain
10:15 PM 33.8 °F 28.6 °F 33.8 °F 100% 29.99 in 2.5 mi SE 5.8 mph - 0.01 in Rain Light Rain
10:35 PM 33.8 °F 27.7 °F 33.8 °F 100% 29.97 in 2.0 mi ESE 6.9 mph - 0.07 in Rain Rain
10:55 PM 33.8 °F - 33.8 °F 100% 29.99 in 1.8 mi Calm Calm - 0.10 in Rain Rain
11:35 PM 33.8 °F 27.7 °F 33.8 °F 100% 29.97 in 1.0 mi NE 6.9 mph - 0.10 in Rain Rain